createdAt,value
2022-10-30T00:01:20.416Z,3.22
2022-10-30T00:03:49.095Z,4.63
2022-10-30T00:08:52.302Z,6.22
2022-10-30T00:11:20.903Z,3.22
2022-10-30T00:13:49.454Z,4.50
2022-10-30T00:16:18.341Z,6.30
2022-10-30T00:18:46.807Z,5.07
2022-10-30T00:21:17.001Z,4.57
2022-10-30T00:23:49.726Z,3.92
2022-10-30T00:26:20.393Z,3.95
2022-10-30T00:28:51.068Z,4.63
2022-10-30T00:31:19.792Z,6.25
2022-10-30T00:33:51.521Z,3.78
2022-10-30T00:36:20.489Z,5.20
2022-10-30T00:38:49.067Z,7.40
2022-10-30T00:41:20.429Z,5.10
2022-10-30T00:43:49.566Z,4.22
2022-10-30T00:46:21.137Z,4.82
2022-10-30T00:48:57.069Z,7.97
2022-10-30T00:51:26.233Z,5.78
2022-10-30T00:53:56.594Z,6.82
2022-10-30T00:56:27.450Z,4.15
2022-10-30T00:59:01.564Z,5.82
2022-10-30T01:01:33.677Z,4.75
2022-10-30T01:04:03.574Z,5.03
2022-10-30T01:06:35.141Z,4.35
2022-10-30T01:09:04.822Z,4.38
2022-10-30T01:11:35.536Z,5.03
2022-10-30T01:14:09.601Z,3.50
2022-10-30T01:16:54.471Z,5.20
2022-10-30T01:19:35.794Z,6.95
2022-10-30T01:22:19.044Z,3.42
2022-10-30T01:24:55.272Z,6.03
2022-10-30T01:27:37.828Z,4.85
2022-10-30T01:30:23.624Z,6.53
2022-10-30T01:33:06.214Z,4.90
2022-10-30T01:35:41.504Z,7.25
2022-10-30T01:38:16.930Z,4.22
2022-10-30T01:40:46.474Z,4.25
2022-10-30T01:43:16.871Z,5.00
2022-10-30T01:46:01.068Z,5.68
2022-10-30T01:48:53.639Z,5.80
2022-10-30T01:51:32.714Z,6.53
2022-10-30T01:54:10.254Z,5.30
2022-10-30T01:56:45.602Z,4.88
2022-10-30T01:59:22.496Z,5.82
2022-10-30T02:01:51.755Z,4.70
2022-10-30T02:04:21.106Z,4.97
2022-10-30T02:06:53.864Z,5.50
2022-10-30T02:09:22.596Z,6.22
2022-10-30T02:11:54.839Z,3.75
2022-10-30T02:14:28.405Z,5.38
2022-10-30T02:16:59.804Z,3.40
2022-10-30T02:19:28.436Z,6.10
2022-10-30T02:21:58.555Z,5.20
2022-10-30T02:24:28.825Z,4.57
2022-10-30T02:26:57.330Z,5.45
2022-10-30T02:29:26.577Z,5.75
2022-10-30T02:31:55.112Z,6.60
2022-10-30T02:34:23.864Z,5.28
2022-10-30T02:36:52.560Z,4.90
2022-10-30T02:39:23.832Z,5.82
2022-10-30T02:41:52.308Z,3.60
2022-10-30T02:44:20.816Z,4.55
2022-10-30T02:46:49.544Z,6.15
2022-10-30T02:49:18.015Z,6.88
2022-10-30T02:51:47.015Z,5.88
2022-10-30T02:54:15.656Z,5.03
2022-10-30T02:56:45.740Z,5.10
2022-10-30T02:59:14.348Z,3.47
2022-10-30T03:01:43.196Z,4.13
2022-10-30T03:04:11.770Z,5.22
2022-10-30T03:06:40.239Z,5.60
2022-10-30T03:09:08.797Z,5.88
2022-10-30T03:11:37.340Z,6.63
2022-10-30T03:14:07.259Z,5.82
2022-10-30T03:16:38.349Z,6.50
2022-10-30T03:19:06.938Z,5.60
2022-10-30T03:21:35.638Z,7.28
2022-10-30T03:24:04.303Z,6.45
2022-10-30T03:26:33.876Z,6.50
2022-10-30T03:29:08.548Z,4.80
2022-10-30T03:31:37.086Z,4.95
2022-10-30T03:34:24.713Z,4.80
2022-10-30T03:36:53.303Z,6.82
2022-10-30T03:39:22.377Z,3.67
2022-10-30T03:41:50.964Z,5.05
2022-10-30T03:44:20.876Z,6.80
2022-10-30T03:46:50.290Z,6.28
2022-10-30T03:49:28.504Z,4.38
2022-10-30T03:51:58.257Z,6.07
2022-10-30T03:54:28.130Z,5.57
2022-10-30T03:56:56.865Z,5.38
2022-10-30T03:59:30.349Z,7.35
2022-10-30T04:02:21.461Z,4.93
2022-10-30T04:04:50.078Z,4.13
2022-10-30T04:07:18.849Z,5.45
2022-10-30T04:09:47.374Z,6.13
2022-10-30T04:12:15.896Z,3.08
2022-10-30T04:14:45.800Z,6.60
2022-10-30T04:17:14.459Z,7.15
2022-10-30T04:19:43.043Z,4.97
2022-10-30T04:22:14.086Z,4.80
2022-10-30T04:24:42.670Z,4.63
2022-10-30T04:27:11.353Z,5.85
2022-10-30T04:29:41.407Z,3.72
2022-10-30T04:32:11.847Z,4.40
2022-10-30T04:34:40.786Z,3.60
2022-10-30T04:37:09.520Z,3.90
2022-10-30T04:39:42.295Z,3.88
2022-10-30T04:42:18.685Z,4.30
2022-10-30T04:44:48.585Z,5.05
2022-10-30T04:47:18.568Z,4.53
2022-10-30T04:49:47.449Z,3.67
2022-10-30T04:52:16.025Z,3.90
2022-10-30T04:54:45.213Z,4.53
2022-10-30T04:57:14.372Z,3.47
2022-10-30T04:59:44.660Z,5.10
2022-10-30T05:02:13.393Z,1.73
2022-10-30T05:04:43.572Z,4.47
2022-10-30T05:07:15.856Z,4.65
2022-10-30T05:09:44.436Z,4.30
2022-10-30T05:12:13.025Z,2.90
2022-10-30T05:14:52.469Z,5.03
2022-10-30T05:17:21.659Z,4.60
2022-10-30T05:19:54.616Z,5.20
2022-10-30T05:22:24.484Z,5.25
2022-10-30T05:24:53.000Z,4.97
2022-10-30T05:27:21.702Z,3.92
2022-10-30T05:29:50.476Z,4.70
2022-10-30T05:32:19.833Z,4.60
2022-10-30T05:34:50.663Z,4.65
2022-10-30T05:37:25.816Z,5.22
2022-10-30T05:39:54.394Z,4.05
2022-10-30T05:42:28.126Z,6.18
2022-10-30T05:45:01.418Z,5.82
2022-10-30T05:47:33.222Z,5.18
2022-10-30T05:50:01.759Z,5.88
2022-10-30T05:52:32.897Z,5.45
2022-10-30T05:55:02.338Z,5.60
2022-10-30T05:57:51.409Z,5.43
2022-10-30T06:00:20.431Z,3.80
2022-10-30T06:02:50.560Z,5.63
2022-10-30T06:05:19.301Z,4.15
2022-10-30T06:07:49.549Z,4.93
2022-10-30T06:10:19.353Z,4.82
2022-10-30T06:13:08.377Z,5.22
2022-10-30T06:16:02.036Z,6.03
2022-10-30T06:18:48.580Z,6.53
2022-10-30T06:21:17.432Z,4.68
2022-10-30T06:24:08.428Z,3.80
2022-10-30T06:27:00.358Z,4.43
2022-10-30T06:29:28.942Z,6.28
2022-10-30T06:31:58.749Z,4.50
2022-10-30T06:34:29.594Z,6.15
2022-10-30T06:36:58.255Z,4.80
2022-10-30T06:39:28.232Z,7.05
2022-10-30T06:42:17.187Z,4.82
2022-10-30T06:45:12.962Z,3.88
2022-10-30T06:47:42.327Z,4.35
2022-10-30T06:50:14.879Z,3.92
2022-10-30T06:52:43.855Z,5.20
2022-10-30T06:55:13.928Z,6.25
2022-10-30T06:58:03.001Z,5.22
2022-10-30T07:00:44.551Z,4.15
2022-10-30T07:03:28.689Z,3.10
2022-10-30T07:05:57.305Z,4.97
2022-10-30T07:08:26.138Z,4.78
2022-10-30T07:10:57.950Z,5.47
2022-10-30T07:13:26.851Z,4.03
2022-10-30T07:16:00.385Z,4.20
2022-10-30T07:18:36.100Z,6.47
2022-10-30T07:21:04.958Z,5.65
2022-10-30T07:23:34.238Z,5.32
2022-10-30T07:26:26.921Z,4.40
2022-10-30T07:28:57.409Z,3.90
2022-10-30T07:31:49.576Z,4.28
2022-10-30T07:34:37.219Z,4.60
2022-10-30T07:37:24.296Z,5.10
2022-10-30T07:40:03.566Z,6.95
2022-10-30T07:42:59.314Z,4.25
2022-10-30T07:45:51.053Z,4.95
2022-10-30T07:48:57.877Z,4.47
2022-10-30T07:51:36.548Z,5.15
2022-10-30T07:54:05.332Z,5.25
2022-10-30T07:56:35.040Z,5.25
2022-10-30T07:59:19.909Z,4.18
2022-10-30T08:02:17.118Z,4.28
2022-10-30T08:05:10.592Z,4.03
2022-10-30T08:08:02.042Z,5.05
2022-10-30T08:10:30.890Z,4.18
2022-10-30T08:12:59.952Z,4.50
2022-10-30T08:15:30.568Z,4.03
2022-10-30T08:17:59.345Z,2.92
2022-10-30T08:20:28.151Z,3.42
2022-10-30T08:22:58.948Z,3.38
2022-10-30T08:25:30.144Z,4.95
2022-10-30T08:28:01.768Z,2.53
2022-10-30T08:30:38.142Z,2.33
2022-10-30T08:33:11.728Z,3.10
2022-10-30T08:35:51.252Z,3.28
2022-10-30T08:38:20.381Z,3.10
2022-10-30T08:40:58.252Z,3.03
2022-10-30T08:43:26.858Z,2.28
2022-10-30T08:46:00.386Z,2.53
2022-10-30T08:48:29.074Z,3.08
2022-10-30T08:51:01.276Z,2.42
2022-10-30T08:53:35.895Z,3.15
2022-10-30T08:56:09.569Z,2.15
2022-10-30T08:58:57.623Z,2.67
2022-10-30T09:01:27.728Z,1.38
2022-10-30T09:04:14.909Z,4.25
2022-10-30T09:07:18.611Z,2.13
2022-10-30T09:10:13.343Z,1.70
2022-10-30T09:12:43.370Z,2.17
2022-10-30T09:15:12.423Z,2.25
2022-10-30T09:17:59.075Z,1.88
2022-10-30T09:20:29.797Z,2.38
2022-10-30T09:22:58.920Z,2.92
2022-10-30T09:25:28.511Z,2.88
2022-10-30T09:28:10.454Z,2.72
2022-10-30T09:31:05.382Z,1.90
2022-10-30T09:33:39.390Z,1.92
2022-10-30T09:36:34.200Z,2.65
2022-10-30T09:39:02.848Z,1.83
2022-10-30T09:42:03.337Z,1.58
2022-10-30T09:44:56.552Z,2.05
2022-10-30T09:47:47.248Z,1.25
2022-10-30T09:50:26.453Z,2.28
2022-10-30T09:53:08.327Z,2.47
2022-10-30T09:55:43.204Z,1.38
2022-10-30T09:58:22.624Z,1.23
2022-10-30T10:00:57.450Z,3.25
2022-10-30T10:06:58.936Z,1.67
2022-10-30T10:09:45.720Z,2.88
2022-10-30T10:12:35.678Z,1.58
2022-10-30T10:15:10.849Z,2.80
2022-10-30T10:17:43.157Z,1.70
2022-10-30T10:20:18.516Z,2.25
2022-10-30T10:22:50.711Z,1.45
2022-10-30T10:25:22.055Z,2.35
2022-10-30T10:28:01.005Z,1.10
2022-10-30T10:30:37.931Z,1.45
2022-10-30T10:33:33.274Z,2.22
2022-10-30T10:36:11.142Z,1.98
2022-10-30T10:39:07.323Z,1.38
2022-10-30T10:41:53.601Z,1.98
2022-10-30T10:44:35.246Z,2.80
2022-10-30T10:47:31.105Z,2.03
2022-10-30T10:50:17.321Z,0.93
2022-10-30T10:52:53.176Z,1.77
2022-10-30T10:55:28.165Z,1.55
2022-10-30T10:58:03.870Z,1.95
2022-10-30T11:00:32.710Z,3.40
2022-10-30T11:03:06.758Z,2.20
2022-10-30T11:05:39.097Z,2.22
2022-10-30T11:08:14.083Z,1.35
2022-10-30T11:10:44.748Z,1.70
2022-10-30T11:13:15.056Z,1.63
2022-10-30T11:16:01.647Z,1.00
2022-10-30T11:18:30.499Z,2.97
2022-10-30T11:21:03.146Z,1.52
2022-10-30T11:23:38.856Z,1.05
2022-10-30T11:26:33.844Z,1.92
2022-10-30T11:29:15.393Z,2.90
2022-10-30T11:31:44.931Z,1.75
2022-10-30T11:34:25.837Z,1.45
2022-10-30T11:36:55.683Z,2.05
2022-10-30T11:39:25.937Z,2.45
2022-10-30T11:42:05.905Z,1.20
2022-10-30T11:44:38.087Z,1.05
2022-10-30T11:47:08.112Z,2.00
2022-10-30T11:49:44.870Z,2.08
2022-10-30T11:52:15.185Z,1.25
2022-10-30T11:54:46.238Z,1.70
2022-10-30T11:57:24.389Z,1.75
2022-10-30T11:59:56.559Z,1.67
2022-10-30T12:02:30.598Z,1.70
2022-10-30T12:05:03.563Z,1.27
2022-10-30T12:07:33.513Z,1.60
2022-10-30T12:10:03.179Z,2.03
2022-10-30T12:12:37.412Z,1.67
2022-10-30T12:15:11.833Z,1.95
2022-10-30T12:17:41.302Z,1.73
2022-10-30T12:20:15.950Z,1.58
2022-10-30T12:22:44.479Z,2.15
2022-10-30T12:25:26.392Z,0.90
2022-10-30T12:28:05.259Z,1.25
2022-10-30T12:30:38.912Z,1.23
2022-10-30T12:33:13.396Z,1.88
2022-10-30T12:35:47.852Z,2.28
2022-10-30T12:38:23.788Z,1.35
2022-10-30T12:41:03.449Z,1.10
2022-10-30T12:43:36.037Z,1.02
2022-10-30T12:46:19.068Z,0.90
2022-10-30T12:48:53.674Z,1.08
2022-10-30T12:51:28.741Z,1.00
2022-10-30T12:54:01.901Z,1.73
2022-10-30T12:56:35.192Z,1.50
2022-10-30T12:59:20.388Z,1.55
2022-10-30T13:01:55.970Z,1.25
2022-10-30T13:04:27.990Z,1.58
2022-10-30T13:07:03.730Z,1.55
2022-10-30T13:09:41.552Z,1.15
2022-10-30T13:12:13.694Z,1.17
2022-10-30T13:14:48.760Z,1.30
2022-10-30T13:17:17.307Z,1.13
2022-10-30T13:19:48.188Z,0.98
2022-10-30T13:22:21.513Z,1.98
2022-10-30T13:25:03.957Z,1.95
2022-10-30T13:27:44.286Z,1.98
2022-10-30T13:30:17.986Z,2.17
2022-10-30T13:33:00.518Z,1.17
2022-10-30T13:35:37.062Z,2.22
2022-10-30T13:38:18.333Z,2.40
2022-10-30T13:40:52.068Z,1.45
2022-10-30T13:43:26.969Z,1.50
2022-10-30T13:46:18.646Z,1.50
2022-10-30T13:48:57.115Z,2.15
2022-10-30T13:51:35.506Z,1.08
2022-10-30T13:54:14.911Z,1.10
2022-10-30T13:56:45.589Z,2.03
2022-10-30T13:59:38.563Z,3.17
2022-10-30T14:02:18.746Z,2.30
2022-10-30T14:04:55.328Z,3.00
2022-10-30T14:07:31.159Z,2.22
2022-10-30T14:10:07.451Z,2.05
2022-10-30T14:12:52.721Z,2.03
2022-10-30T14:15:28.555Z,2.08
2022-10-30T14:18:24.659Z,2.75
2022-10-30T14:20:54.366Z,2.00
2022-10-30T14:23:25.297Z,1.92
2022-10-30T14:26:16.126Z,1.75
2022-10-30T14:28:46.982Z,2.42
2022-10-30T14:31:17.962Z,2.95
2022-10-30T14:33:50.621Z,2.63
2022-10-30T14:36:22.635Z,3.10
2022-10-30T14:38:56.441Z,2.00
2022-10-30T14:41:49.564Z,3.38
2022-10-30T14:44:45.048Z,2.83
2022-10-30T14:47:46.164Z,2.20
2022-10-30T14:50:32.484Z,2.03
2022-10-30T14:53:27.313Z,1.77
2022-10-30T14:56:04.258Z,2.13
2022-10-30T14:58:35.090Z,1.85
2022-10-30T15:01:32.351Z,2.83
2022-10-30T15:04:14.026Z,1.60
2022-10-30T15:06:55.441Z,2.13
2022-10-30T15:09:40.429Z,2.45
2022-10-30T15:12:35.508Z,2.72
2022-10-30T15:15:06.438Z,3.33
2022-10-30T15:17:38.194Z,2.95
2022-10-30T15:20:09.692Z,2.72
2022-10-30T15:22:39.828Z,2.60
2022-10-30T15:25:17.765Z,2.20
2022-10-30T15:27:48.590Z,2.53
2022-10-30T15:30:20.089Z,2.97
2022-10-30T15:32:48.936Z,3.03
2022-10-30T15:35:20.841Z,2.70
2022-10-30T15:38:01.783Z,3.20
2022-10-30T15:40:31.331Z,3.25
2022-10-30T15:43:01.811Z,2.20
2022-10-30T15:45:34.755Z,4.13
2022-10-30T15:48:07.899Z,4.30
2022-10-30T15:50:38.951Z,2.97
2022-10-30T15:53:18.673Z,3.55
2022-10-30T15:55:47.892Z,2.53
2022-10-30T15:58:19.631Z,3.40
2022-10-30T16:00:57.820Z,4.28
2022-10-30T16:03:27.571Z,3.15
2022-10-30T16:06:16.630Z,4.75
2022-10-30T16:08:48.461Z,3.10
2022-10-30T16:11:17.558Z,4.97
2022-10-30T16:13:46.090Z,3.55
2022-10-30T16:16:27.461Z,4.25
2022-10-30T16:19:00.141Z,3.38
2022-10-30T16:21:31.297Z,3.83
2022-10-30T16:24:04.532Z,5.18
2022-10-30T16:26:34.969Z,4.97
2022-10-30T16:29:17.617Z,5.13
2022-10-30T16:31:50.151Z,2.72
2022-10-30T16:34:25.389Z,4.47
2022-10-30T16:36:55.105Z,3.53
2022-10-30T16:39:26.138Z,4.70
2022-10-30T16:41:57.884Z,4.60
2022-10-30T16:44:31.005Z,4.75
2022-10-30T16:47:04.472Z,3.67
2022-10-30T16:49:35.358Z,4.70
2022-10-30T16:52:06.259Z,3.88
2022-10-30T16:54:40.189Z,5.05
2022-10-30T16:57:16.377Z,4.07
2022-10-30T16:59:49.460Z,2.33
2022-10-30T17:02:21.125Z,3.88
2022-10-30T17:04:55.541Z,3.22
2022-10-30T17:07:28.652Z,3.38
2022-10-30T17:09:59.634Z,3.75
2022-10-30T17:12:30.163Z,4.35
2022-10-30T17:15:12.738Z,4.50
2022-10-30T17:17:44.869Z,3.55
2022-10-30T17:20:28.251Z,3.80
2022-10-30T17:23:08.205Z,4.38
2022-10-30T17:25:39.892Z,4.60
2022-10-30T17:28:10.707Z,4.80
2022-10-30T17:30:40.668Z,5.05
2022-10-30T17:33:28.026Z,4.47
2022-10-30T17:35:56.583Z,5.05
2022-10-30T17:38:25.139Z,4.20
2022-10-30T17:40:55.276Z,3.60
2022-10-30T17:43:27.204Z,4.03
2022-10-30T17:45:55.756Z,4.53
2022-10-30T17:48:27.964Z,4.30
2022-10-30T17:50:57.155Z,4.28
2022-10-30T17:53:28.200Z,5.20
2022-10-30T17:56:02.540Z,3.67
2022-10-30T17:58:31.946Z,6.75
2022-10-30T18:01:00.812Z,5.57
2022-10-30T18:03:29.677Z,4.60
2022-10-30T18:05:58.802Z,6.03
2022-10-30T18:08:27.342Z,5.82
2022-10-30T18:10:55.882Z,3.50
2022-10-30T18:13:25.846Z,5.18
2022-10-30T18:15:58.314Z,6.35
2022-10-30T18:18:26.838Z,4.22
2022-10-30T18:20:55.401Z,5.57
2022-10-30T18:26:17.458Z,5.75
2022-10-30T18:28:47.465Z,5.15
2022-10-30T18:31:18.774Z,5.18
2022-10-30T18:33:48.069Z,5.18
2022-10-30T18:36:18.673Z,6.85
2022-10-30T18:38:47.441Z,5.20
2022-10-30T18:41:17.178Z,5.43
2022-10-30T18:43:47.483Z,6.22
2022-10-30T18:46:17.633Z,3.67
2022-10-30T18:48:46.580Z,4.68
2022-10-30T18:51:18.486Z,8.05
2022-10-30T18:53:51.988Z,7.22
2022-10-30T18:56:21.697Z,4.13
2022-10-30T18:58:55.026Z,7.38
2022-10-30T19:01:27.561Z,6.03
2022-10-30T19:03:56.163Z,6.20
2022-10-30T19:06:26.025Z,5.30
2022-10-30T19:08:54.545Z,8.50
2022-10-30T19:11:25.298Z,6.28
2022-10-30T19:13:55.930Z,4.65
2022-10-30T19:16:25.769Z,5.72
2022-10-30T19:18:54.409Z,6.93
2022-10-30T19:21:25.554Z,5.80
2022-10-30T19:23:55.358Z,9.10
2022-10-30T19:26:24.357Z,8.60
2022-10-30T19:28:52.935Z,7.20
2022-10-30T19:31:22.861Z,6.60
2022-10-30T19:33:56.267Z,8.07
2022-10-30T19:36:31.375Z,6.35
2022-10-30T19:39:05.851Z,6.05
2022-10-30T19:41:37.285Z,4.88
2022-10-30T19:44:06.234Z,6.13
2022-10-30T19:46:36.516Z,6.35
2022-10-30T19:49:16.228Z,6.57
2022-10-30T19:51:44.768Z,6.45
2022-10-30T19:54:13.385Z,7.35
2022-10-30T19:56:43.551Z,6.00
2022-10-30T19:59:14.358Z,10.63
2022-10-30T20:01:45.068Z,3.92
2022-10-30T20:04:13.959Z,7.45
2022-10-30T20:06:42.479Z,6.97
2022-10-30T20:09:12.554Z,6.72
2022-10-30T20:11:41.083Z,8.38
2022-10-30T20:14:09.569Z,6.53
2022-10-30T20:16:38.144Z,7.10
2022-10-30T20:19:27.583Z,7.07
2022-10-30T20:21:56.464Z,6.38
2022-10-30T20:24:25.593Z,9.68
2022-10-30T20:26:56.637Z,7.78
2022-10-30T20:29:26.101Z,8.30
2022-10-30T20:31:55.722Z,6.75
2022-10-30T20:34:28.108Z,5.53
2022-10-30T20:36:56.740Z,6.40
2022-10-30T20:39:25.364Z,8.35
2022-10-30T20:41:53.955Z,7.00
2022-10-30T20:44:22.462Z,6.60
2022-10-30T20:46:50.932Z,7.82
2022-10-30T20:49:20.546Z,5.78
2022-10-30T20:51:50.395Z,8.25
2022-10-30T20:54:19.339Z,8.63
2022-10-30T20:56:48.040Z,6.45
2022-10-30T20:59:16.622Z,8.10
2022-10-30T21:01:45.403Z,6.97
2022-10-30T21:04:14.210Z,8.77
2022-10-30T21:06:43.125Z,7.65
2022-10-30T21:09:13.007Z,8.20
2022-10-30T21:11:41.617Z,6.78
2022-10-30T21:14:10.132Z,5.43
2022-10-30T21:16:38.658Z,5.38
2022-10-30T21:19:07.195Z,6.95
2022-10-30T21:21:35.779Z,6.82
2022-10-30T21:24:04.405Z,7.80
2022-10-30T21:26:35.099Z,6.47
2022-10-30T21:29:03.674Z,6.43
2022-10-30T21:31:32.190Z,6.32
2022-10-30T21:34:00.889Z,7.65
2022-10-30T21:36:29.439Z,6.20
2022-10-30T21:38:59.701Z,7.40
2022-10-30T21:41:28.382Z,5.72
2022-10-30T21:43:59.412Z,7.20
2022-10-30T21:46:29.759Z,8.98
2022-10-30T21:49:02.869Z,8.05
2022-10-30T21:51:31.423Z,8.50
2022-10-30T21:54:00.219Z,6.32
2022-10-30T21:56:30.907Z,8.15
2022-10-30T21:59:04.677Z,5.68
2022-10-30T22:01:36.073Z,7.05
2022-10-30T22:04:07.216Z,8.43
2022-10-30T22:06:38.755Z,8.15
2022-10-30T22:09:07.514Z,9.60
2022-10-30T22:11:36.410Z,6.60
2022-10-30T22:14:06.858Z,7.03
2022-10-30T22:16:37.823Z,7.90
2022-10-30T22:19:07.686Z,7.80
2022-10-30T22:21:36.195Z,8.63
2022-10-30T22:24:05.315Z,12.15
2022-10-30T22:26:34.043Z,6.57
2022-10-30T22:29:02.632Z,9.13
2022-10-30T22:31:32.506Z,8.50
2022-10-30T22:34:01.965Z,6.15
2022-10-30T22:36:31.823Z,12.38
2022-10-30T22:39:01.826Z,5.55
2022-10-30T22:41:34.673Z,6.97
2022-10-30T22:44:08.988Z,6.55
2022-10-30T22:46:39.485Z,8.98
2022-10-30T22:49:08.424Z,7.53
2022-10-30T22:51:38.140Z,8.27
2022-10-30T22:54:08.271Z,7.85
2022-10-30T22:56:38.399Z,5.70
2022-10-30T22:59:09.297Z,6.97
2022-10-30T23:01:40.240Z,8.90
2022-10-30T23:04:10.892Z,7.05
2022-10-30T23:06:39.558Z,6.00
2022-10-30T23:09:10.791Z,8.73
2022-10-30T23:11:39.301Z,7.00
2022-10-30T23:14:07.810Z,7.13
2022-10-30T23:16:36.295Z,10.55
2022-10-30T23:19:06.161Z,10.85
2022-10-30T23:21:34.723Z,11.45
2022-10-30T23:24:04.692Z,8.48
2022-10-30T23:26:35.287Z,7.72
2022-10-30T23:29:04.460Z,10.13
2022-10-30T23:31:35.608Z,8.32
2022-10-30T23:34:08.091Z,8.50
2022-10-30T23:36:37.124Z,7.93
2022-10-30T23:39:07.432Z,6.88
2022-10-30T23:41:36.429Z,8.85
2022-10-30T23:44:07.795Z,8.55
2022-10-30T23:46:36.997Z,6.53
2022-10-30T23:49:06.943Z,7.60
2022-10-30T23:51:35.772Z,6.57
2022-10-30T23:54:05.303Z,8.75
2022-10-30T23:56:33.736Z,8.68
2022-10-30T23:59:02.378Z,5.93
